Bookmark and Share
Track history (hours):
 

Eagle Tampa

Last reported at 2014-Apr-14 17:34 UTC. Time now 2014-Apr-17 12:37 UTC.
Position N 29°28' W 094°51'.

Length 247 m; draft 8.5 m.

Type: Tanker. MMSI: 563936000.

NotesDate/timePositionNaut miles runAvg speedWind from/ knotsBaromVisibWave heightAir tempDewpointWater temp
2014-Apr-14 17:34N 29°28' W 094°51'1211.6
2014-Apr-14 16:33N 29°38' W 094°58'6 6.2
2014-Apr-14 15:33N 29°44' W 095°01'0 0.0
2014-Apr-13 17:24N 29°44' W 095°01'0 0.0
2014-Apr-13 16:30N 29°44' W 095°01'0 0.1
2014-Apr-13 15:33N 29°44' W 095°01'5 5.0
2014-Apr-13 14:33N 29°40' W 094°58'  
2014-Apr-09 13:14N 28°38' W 094°33'43 1.1
2014-Apr-07 21:16N 29°21' W 094°43'9 9.9
2014-Apr-07 20:21N 29°27' W 094°50'910.9
2014-Apr-07 19:33N 29°34' W 094°55'11 5.5
2014-Apr-07 17:33N 29°44' W 095°01'0 0.0
2014-Apr-07 16:33N 29°44' W 095°01'0 0.0
2014-Apr-07 15:33N 29°44' W 095°01'0 0.0
2014-Apr-07 14:33N 29°44' W 095°01'0 0.0
2014-Apr-07 13:33N 29°44' W 095°01'0 0.0
2014-Apr-07 12:33N 29°44' W 095°01'0 0.0
2014-Apr-07 11:33N 29°44' W 095°01'0 0.0
2014-Apr-07 10:33N 29°44' W 095°01'0 0.0
2014-Apr-07 09:33N 29°44' W 095°01'0 0.0
2014-Apr-07 08:33N 29°44' W 095°01'0 0.0
2014-Apr-07 07:33N 29°44' W 095°01'0 0.0
2014-Apr-07 06:33N 29°44' W 095°01'0 0.0
2014-Apr-07 05:30N 29°44' W 095°01'0 0.0
2014-Apr-07 04:30N 29°44' W 095°01'0 0.0
2014-Apr-07 03:33N 29°44' W 095°01'0 0.0
2014-Apr-07 02:33N 29°44' W 095°01'0 0.0
2014-Apr-07 01:33N 29°44' W 095°01'0 0.0
2014-Apr-07 00:33N 29°44' W 095°01'0 0.0
2014-Apr-06 23:33N 29°44' W 095°01'0 0.0
2014-Apr-06 22:33N 29°44' W 095°01'0 0.0
2014-Apr-06 21:33N 29°44' W 095°01'0 0.0
2014-Apr-06 20:33N 29°44' W 095°01'0 0.0
2014-Apr-06 19:33N 29°44' W 095°01'0 0.0
2014-Apr-06 18:33N 29°44' W 095°01'0 0.0
2014-Apr-06 17:33N 29°44' W 095°01'0 0.0
2014-Apr-06 16:33N 29°44' W 095°01'0 0.0
2014-Apr-06 15:33N 29°44' W 095°01'0 0.0
2014-Apr-06 14:33N 29°44' W 095°01'0 0.0
2014-Apr-06 13:33N 29°44' W 095°01'0 0.0
2014-Apr-06 12:33N 29°44' W 095°01'0 0.0
2014-Apr-06 11:33N 29°44' W 095°01'0 0.0
2014-Apr-06 10:33N 29°44' W 095°01'0 0.0
2014-Apr-06 09:33N 29°44' W 095°01'0 0.0
2014-Apr-06 08:30N 29°44' W 095°01'0 0.0
2014-Apr-06 07:30N 29°44' W 095°01'0 0.0
2014-Apr-06 06:33N 29°44' W 095°01'0 0.0
2014-Apr-06 05:33N 29°44' W 095°01'0 0.0
2014-Apr-06 04:33N 29°44' W 095°01'0 0.0
2014-Apr-06 03:33N 29°44' W 095°01'0 0.0
2014-Apr-06 02:33N 29°44' W 095°01'0 0.0
2014-Apr-06 01:33N 29°44' W 095°01'0 0.0
2014-Apr-06 00:33N 29°44' W 095°01'0 0.0
2014-Apr-05 23:33N 29°44' W 095°01'0 0.0
2014-Apr-05 22:33N 29°44' W 095°01'0 0.0
2014-Apr-05 21:33N 29°44' W 095°01'0 0.0
2014-Apr-05 20:33N 29°44' W 095°01'0 0.0
2014-Apr-05 19:33N 29°44' W 095°01'0 0.0
2014-Apr-05 18:33N 29°44' W 095°01'0 0.0
2014-Apr-05 17:33N 29°44' W 095°01'0 0.2
2014-Apr-05 16:33N 29°44' W 095°01'5 5.1
2014-Apr-05 15:33N 29°39' W 094°58'10 9.6
2014-Apr-05 14:33N 29°31' W 094°53'  

Dump ship's entire track history

sailing weather and tide predictions

Eagle Tampa — S6NK6 — position and weather